Time;durP1;ratioP1;P1;durP2;ratioP2;P2;SDS_P1;SDS_P2;PMS_P1;PMS_P2;Temp;Humidity;BMP_temperature;BMP_pressure;BME280_temperature;BME280_humidity;BME280_pressure;Samples;Min_cycle;Max_cycle;Signal;HPM_P1;HPM_P2
2022/12/26 00:00:11;;;;;;;10.30;5.67;;;5.40;99.90;;;;;;4138569;28;20468;-63
2022/12/26 00:02:11;;;;;;;10.03;5.33;;;5.30;99.90;;;;;;4137883;28;20580;-64
2022/12/26 00:04:12;;;;;;;10.93;5.53;;;5.20;99.90;;;;;;4138593;28;20436;-65
2022/12/26 00:06:17;;;;;;;11.33;5.60;;;5.30;99.90;;;;;;4127694;28;20205;-64
2022/12/26 00:08:17;;;;;;;10.07;5.70;;;5.30;99.90;;;;;;4127677;28;20229;-65
2022/12/26 00:10:18;;;;;;;8.23;5.40;;;5.30;99.90;;;;;;4128549;28;20440;-64
2022/12/26 00:12:19;;;;;;;9.37;5.87;;;5.40;99.90;;;;;;4128398;28;20253;-63
2022/12/26 00:14:19;;;;;;;11.43;5.70;;;5.50;99.90;;;;;;4136318;28;20193;-63
2022/12/26 00:16:21;;;;;;;11.27;6.23;;;5.50;99.90;;;;;;4139128;28;20636;-64
2022/12/26 00:18:22;;;;;;;17.27;7.77;;;5.30;99.90;;;;;;4128302;28;20237;-63
2022/12/26 00:20:22;;;;;;;11.53;6.50;;;5.40;99.90;;;;;;4138849;28;20432;-64
2022/12/26 00:22:23;;;;;;;11.27;5.53;;;5.40;99.90;;;;;;4146230;28;20192;-63
2022/12/26 00:24:24;;;;;;;11.43;5.73;;;5.40;99.90;;;;;;4146675;28;20182;-64
2022/12/26 00:26:29;;;;;;;10.93;6.20;;;5.50;99.90;;;;;;4146108;28;20193;-63
2022/12/26 00:28:29;;;;;;;10.00;5.07;;;5.40;99.90;;;;;;4146471;28;20206;-64
2022/12/26 00:30:30;;;;;;;7.07;4.53;;;5.10;99.90;;;;;;4128070;28;20417;-64
2022/12/26 00:32:31;;;;;;;11.23;4.87;;;5.20;99.90;;;;;;4145933;28;20189;-64
2022/12/26 00:34:31;;;;;;;9.50;5.43;;;5.30;99.90;;;;;;4146181;28;20187;-64
2022/12/26 00:36:33;;;;;;;8.67;5.10;;;5.10;99.90;;;;;;4145704;28;20179;-64
2022/12/26 00:38:35;;;;;;;8.30;4.87;;;5.20;99.90;;;;;;4146501;28;20198;-64
2022/12/26 00:40:42;;;;;;;8.13;4.60;;;5.30;99.90;;;;;;4146174;28;20435;-64
2022/12/26 00:42:42;;;;;;;10.27;5.20;;;5.50;99.90;;;;;;4146456;28;20520;-64
2022/12/26 00:44:43;;;;;;;10.57;5.50;;;5.50;99.90;;;;;;4146504;28;20413;-64
2022/12/26 00:46:44;;;;;;;12.47;5.10;;;5.30;99.90;;;;;;4138039;28;20665;-64
2022/12/26 00:48:44;;;;;;;8.07;5.00;;;5.30;99.90;;;;;;4129718;28;20709;-67
2022/12/26 00:50:45;;;;;;;7.90;4.77;;;5.30;99.90;;;;;;4129651;28;20636;-64
2022/12/26 00:52:46;;;;;;;8.10;4.80;;;5.40;99.90;;;;;;4119275;28;20187;-64
2022/12/26 00:54:46;;;;;;;8.33;4.77;;;5.60;99.90;;;;;;4113969;28;20187;-63
2022/12/26 00:56:47;;;;;;;7.33;4.10;;;5.60;99.90;;;;;;4113309;28;20257;-64
2022/12/26 00:58:47;;;;;;;6.00;4.23;;;5.70;99.90;;;;;;4113839;28;20210;-64
2022/12/26 01:00:49;;;;;;;7.53;3.80;;;5.70;99.90;;;;;;4113910;28;20179;-63
2022/12/26 01:02:50;;;;;;;7.03;4.10;;;5.70;99.90;;;;;;4096555;29;20831;-64
2022/12/26 01:04:50;;;;;;;8.73;4.73;;;5.70;99.90;;;;;;4113532;28;20426;-64
2022/12/26 01:06:51;;;;;;;8.03;4.60;;;5.60;99.90;;;;;;4112647;28;20655;-64
2022/12/26 01:08:52;;;;;;;6.20;3.83;;;5.60;99.90;;;;;;4113625;28;20249;-64
2022/12/26 01:10:53;;;;;;;8.53;4.60;;;5.50;99.90;;;;;;4124299;28;20269;-64
2022/12/26 01:12:54;;;;;;;6.63;4.13;;;5.40;99.90;;;;;;4129587;28;20464;-64
2022/12/26 01:14:55;;;;;;;7.60;4.73;;;5.30;99.90;;;;;;4130354;28;20174;-63
2022/12/26 01:16:56;;;;;;;5.67;4.20;;;5.30;99.90;;;;;;4142340;28;20183;-63
2022/12/26 01:18:56;;;;;;;8.23;4.03;;;5.20;99.90;;;;;;4134824;28;20456;-64
2022/12/26 01:21:04;;;;;;;6.67;4.63;;;5.40;99.90;;;;;;4113483;28;20273;-64
2022/12/26 01:23:05;;;;;;;7.60;4.77;;;5.30;99.90;;;;;;4097094;29;20764;-64
2022/12/26 01:25:06;;;;;;;13.67;5.70;;;5.40;99.90;;;;;;4112625;28;20505;-64
2022/12/26 01:27:07;;;;;;;11.17;4.97;;;5.30;99.90;;;;;;4111842;28;20183;-64
2022/12/26 01:29:08;;;;;;;11.77;5.40;;;5.10;99.90;;;;;;4129677;28;20472;-63
2022/12/26 01:31:08;;;;;;;9.07;4.90;;;5.10;99.90;;;;;;4112806;28;20216;-64
2022/12/26 01:33:09;;;;;;;10.93;4.60;;;5.10;99.90;;;;;;4130268;28;20181;-65
2022/12/26 01:35:10;;;;;;;9.27;5.13;;;5.20;99.90;;;;;;4129752;28;20178;-63
2022/12/26 01:37:13;;;;;;;17.87;8.13;;;5.30;99.90;;;;;;4111646;28;20187;-64
2022/12/26 01:39:13;;;;;;;31.73;15.00;;;5.30;99.90;;;;;;4112658;28;20206;-63
2022/12/26 01:41:20;;;;;;;20.63;12.67;;;5.30;99.90;;;;;;4129537;28;20852;-65
2022/12/26 01:43:21;;;;;;;16.43;7.37;;;5.40;99.90;;;;;;4113525;28;20882;-64
2022/12/26 01:45:29;;;;;;;11.33;6.97;;;5.40;99.90;;;;;;4112360;28;20430;-64
2022/12/26 01:47:47;;;;;;;13.07;7.20;;;5.50;99.90;;;;;;4129250;28;20192;-64
2022/12/26 01:49:52;;;;;;;19.40;9.30;;;5.50;99.90;;;;;;4130031;28;21250;-64
2022/12/26 01:52:00;;;;;;;25.87;10.80;;;5.20;99.90;;;;;;4129616;28;20504;-64
2022/12/26 01:54:07;;;;;;;16.90;8.97;;;5.10;99.90;;;;;;4128317;28;20417;-65
2022/12/26 01:56:17;;;;;;;12.10;6.30;;;5.10;99.90;;;;;;4112060;28;21053;-64
2022/12/26 01:58:26;;;;;;;12.63;6.73;;;5.20;99.90;;;;;;4095134;29;20466;-64
2022/12/26 02:00:27;;;;;;;13.93;8.17;;;5.20;99.90;;;;;;4095776;28;20442;-66
2022/12/26 02:02:29;;;;;;;14.80;6.90;;;5.10;99.90;;;;;;4129332;28;20505;-64
2022/12/26 02:06:55;;;;;;;12.30;6.53;;;5.20;99.90;;;;;;4128715;28;20468;-64
2022/12/26 02:08:57;;;;;;;13.93;6.93;;;5.20;99.90;;;;;;4128858;28;20473;-64
2022/12/26 02:11:32;;;;;;;10.47;6.03;;;5.20;99.90;;;;;;4111912;28;20179;-64
2022/12/26 02:13:36;;;;;;;11.93;5.90;;;5.20;99.90;;;;;;4098102;28;20438;-65
2022/12/26 02:15:37;;;;;;;12.37;6.07;;;5.30;99.90;;;;;;4111680;28;20418;-64
2022/12/26 02:17:39;;;;;;;10.27;5.77;;;5.30;99.90;;;;;;4128355;28;20801;-64
2022/12/26 02:19:58;;;;;;;11.07;5.67;;;5.30;99.90;;;;;;4111539;28;20457;-65
2022/12/26 02:22:32;;;;;;;11.27;5.97;;;5.10;99.90;;;;;;4111745;28;20533;-64
2022/12/26 02:24:49;;;;;;;8.77;5.23;;;5.00;99.90;;;;;;4129156;28;20488;-64
2022/12/26 02:27:30;;;;;;;8.23;4.90;;;5.10;99.90;;;;;;4111395;28;20509;-64
2022/12/26 02:29:52;;;;;;;9.63;3.93;;;5.10;99.90;;;;;;4112001;28;20478;-65
2022/12/26 02:32:20;;;;;;;4.90;3.43;;;5.10;99.90;;;;;;4131985;28;20465;-63
2022/12/26 02:35:05;;;;;;;6.67;4.00;;;5.10;99.90;;;;;;4114605;28;21046;-64
2022/12/26 02:37:49;;;;;;;8.07;4.23;;;5.10;99.90;;;;;;4130702;28;20433;-64
2022/12/26 02:40:34;;;;;;;6.60;4.17;;;5.10;99.90;;;;;;4131733;28;20406;-64
2022/12/26 02:43:02;;;;;;;7.17;4.83;;;5.10;99.90;;;;;;4120931;28;20436;-64
2022/12/26 02:48:03;;;;;;;9.67;4.87;;;5.00;99.90;;;;;;4116268;28;20513;-64
2022/12/26 03:13:40;;;;;;;4.30;3.10;;;5.30;99.90;;;;;;4119748;28;20882;-65
2022/12/26 03:18:10;;;;;;;6.77;3.70;;;5.30;99.90;;;;;;4142425;28;20990;-64
2022/12/26 03:20:19;;;;;;;7.43;3.90;;;5.30;99.90;;;;;;4115416;28;20431;-63
2022/12/26 03:22:32;;;;;;;6.13;3.93;;;5.20;99.90;;;;;;4114486;28;21240;-65
2022/12/26 03:26:38;;;;;;;7.30;4.10;;;5.20;99.90;;;;;;4116337;28;20403;-63
2022/12/26 03:26:53;;;;;;;5.43;3.50;;;5.30;99.90;;;;;;4116052;28;20510;-65
2022/12/26 03:30:47;;;;;;;6.57;4.27;;;5.30;99.90;;;;;;4129874;28;20508;-64
2022/12/26 03:31:15;;;;;;;8.27;5.03;;;5.30;99.90;;;;;;4131583;28;20197;-64
2022/12/26 03:35:49;;;;;;;6.50;4.30;;;5.30;99.90;;;;;;4130288;28;20469;-64
2022/12/26 03:38:07;;;;;;;7.67;4.37;;;5.30;99.90;;;;;;4130544;28;20430;-64
2022/12/26 04:19:59;;;;;;;8.47;3.80;;;5.70;99.90;;;;;;4130199;28;20471;-64
2022/12/26 04:46:08;;;;;;;3.40;2.67;;;7.10;99.90;;;;;;4130357;28;20422;-64
2022/12/26 04:50:30;;;;;;;3.83;2.30;;;7.70;99.90;;;;;;4129960;28;20198;-65
2022/12/26 04:54:50;;;;;;;1.87;1.50;;;8.40;99.90;;;;;;4113885;28;20656;-64
2022/12/26 04:56:51;;;;;;;4.37;2.37;;;8.50;99.90;;;;;;4113353;28;20186;-64
2022/12/26 04:58:52;;;;;;;6.77;2.43;;;8.50;99.90;;;;;;4113990;28;20213;-64
2022/12/26 05:09:32;;;;;;;2.77;1.93;;;8.70;99.90;;;;;;4118471;28;20181;-63
2022/12/26 05:10:24;;;;;;;2.67;1.80;;;9.20;99.90;;;;;;4101104;28;20328;-62
2022/12/26 05:12:25;;;;;;;2.83;1.77;;;9.10;99.90;;;;;;4129633;28;20173;-62
2022/12/26 05:14:27;;;;;;;3.37;1.80;;;9.40;99.90;;;;;;4113358;28;20201;-63
2022/12/26 05:30:35;;;;;;;2.57;1.20;;;9.90;99.80;;;;;;4113678;28;20182;-64
2022/12/26 05:34:55;;;;;;;2.10;1.63;;;10.00;98.80;;;;;;4113405;28;20889;-63
2022/12/26 05:36:58;;;;;;;5.07;1.60;;;10.00;98.40;;;;;;4112503;28;20179;-63
2022/12/26 05:38:59;;;;;;;2.57;1.60;;;10.00;98.20;;;;;;4113135;28;20210;-63
2022/12/26 05:41:00;;;;;;;2.20;1.30;;;9.90;99.00;;;;;;4113182;28;20222;-63
2022/12/26 05:43:00;;;;;;;2.13;1.50;;;9.70;99.50;;;;;;4113256;28;20265;-63
2022/12/26 05:45:01;;;;;;;4.37;1.93;;;9.70;99.40;;;;;;4113398;28;20222;-63
2022/12/26 05:47:02;;;;;;;2.57;1.80;;;9.60;99.40;;;;;;4112707;28;20245;-64
2022/12/26 05:49:04;;;;;;;3.30;1.70;;;9.50;99.80;;;;;;4096142;29;20707;-64
2022/12/26 05:51:05;;;;;;;2.23;1.97;;;9.40;99.90;;;;;;4113408;28;20258;-63
2022/12/26 05:53:05;;;;;;;2.10;1.67;;;9.40;99.40;;;;;;4113233;28;20183;-63
2022/12/26 05:55:06;;;;;;;3.03;1.73;;;9.40;99.60;;;;;;4113510;28;20241;-63
2022/12/26 05:57:07;;;;;;;2.23;1.70;;;9.20;99.90;;;;;;4112624;28;20681;-63
2022/12/26 05:59:08;;;;;;;2.87;1.60;;;9.20;99.90;;;;;;4113302;28;20261;-63
2022/12/26 06:01:14;;;;;;;1.97;1.60;;;9.10;99.90;;;;;;4113704;28;20179;-63
2022/12/26 06:03:15;;;;;;;4.57;1.40;;;9.20;99.90;;;;;;4096637;28;20180;-63
2022/12/26 06:05:16;;;;;;;2.57;1.50;;;9.50;99.90;;;;;;4116472;28;20218;-63
2022/12/26 06:07:17;;;;;;;4.67;1.80;;;9.60;99.50;;;;;;4115720;28;20298;-63
2022/12/26 06:09:17;;;;;;;2.83;1.73;;;9.50;99.60;;;;;;4116363;28;20259;-62
2022/12/26 06:11:20;;;;;;;4.53;1.70;;;9.50;99.40;;;;;;4116302;28;20249;-62
2022/12/26 06:13:21;;;;;;;2.83;1.50;;;9.50;99.40;;;;;;4116224;28;20218;-62
2022/12/26 06:15:22;;;;;;;2.93;1.70;;;9.70;99.00;;;;;;4116304;28;20677;-63
2022/12/26 06:17:22;;;;;;;2.57;1.40;;;9.80;98.50;;;;;;4115775;28;20222;-63
2022/12/26 06:19:23;;;;;;;2.97;1.50;;;9.90;98.50;;;;;;4116380;28;20214;-63
2022/12/26 06:21:24;;;;;;;2.60;1.60;;;10.00;98.10;;;;;;4116331;28;20183;-64
2022/12/26 06:23:24;;;;;;;3.33;1.77;;;9.90;98.00;;;;;;4116227;28;20214;-63
2022/12/26 06:25:25;;;;;;;2.40;1.60;;;10.10;97.60;;;;;;4115920;28;20187;-63
2022/12/26 06:27:26;;;;;;;3.07;1.60;;;10.10;96.90;;;;;;4097933;29;20198;-63
2022/12/26 06:29:26;;;;;;;4.03;2.10;;;10.10;97.30;;;;;;4115853;28;20222;-63
2022/12/26 06:31:27;;;;;;;3.20;2.10;;;10.00;97.20;;;;;;4115781;28;20190;-64
2022/12/26 06:33:28;;;;;;;2.70;2.30;;;9.80;97.50;;;;;;4115680;28;20650;-64
2022/12/26 06:35:28;;;;;;;3.37;2.37;;;9.60;98.00;;;;;;4115906;28;20698;-63
2022/12/26 06:37:30;;;;;;;5.07;2.30;;;9.70;97.80;;;;;;4114958;28;20554;-64
2022/12/26 06:39:30;;;;;;;3.63;2.50;;;9.60;98.10;;;;;;4115647;28;20237;-63
2022/12/26 06:41:31;;;;;;;3.30;2.40;;;9.50;98.40;;;;;;4115625;28;20195;-64
2022/12/26 06:43:32;;;;;;;5.20;2.50;;;9.60;97.90;;;;;;4115686;28;20229;-64
2022/12/26 06:45:33;;;;;;;3.27;2.20;;;9.60;98.40;;;;;;4115564;28;20849;-64
2022/12/26 06:47:33;;;;;;;2.93;2.30;;;9.50;99.10;;;;;;4081566;29;20192;-63
2022/12/26 06:49:34;;;;;;;4.20;2.70;;;9.40;99.20;;;;;;4114994;28;20218;-64
2022/12/26 06:51:35;;;;;;;3.30;2.43;;;9.30;99.30;;;;;;4130790;28;20190;-63
2022/12/26 06:53:36;;;;;;;4.50;2.70;;;9.20;99.50;;;;;;4125060;28;20187;-64
2022/12/26 06:55:36;;;;;;;4.00;2.77;;;8.90;99.90;;;;;;4098129;29;20195;-64
2022/12/26 06:57:37;;;;;;;4.03;2.67;;;8.70;99.90;;;;;;4114702;28;20238;-63
2022/12/26 06:59:37;;;;;;;4.90;2.30;;;8.50;99.90;;;;;;4115369;28;20206;-64
2022/12/26 07:01:38;;;;;;;4.00;2.90;;;8.40;99.90;;;;;;4115288;28;20190;-63
2022/12/26 07:03:39;;;;;;;5.23;3.10;;;8.10;99.90;;;;;;4115162;28;20226;-63
2022/12/26 07:05:40;;;;;;;4.90;3.27;;;8.00;99.90;;;;;;4115229;28;20249;-64
2022/12/26 07:07:41;;;;;;;5.10;2.70;;;7.90;99.90;;;;;;4114548;28;20205;-63
2022/12/26 07:09:41;;;;;;;5.57;3.20;;;7.90;99.90;;;;;;4115372;28;20688;-63
2022/12/26 07:11:46;;;;;;;4.97;3.53;;;7.90;99.90;;;;;;4098157;29;20219;-63
2022/12/26 07:13:47;;;;;;;6.00;3.50;;;8.00;99.90;;;;;;4118545;28;20182;-63
2022/12/26 07:15:47;;;;;;;4.70;2.60;;;7.80;99.90;;;;;;4123395;28;20216;-63
2022/12/26 07:17:48;;;;;;;4.63;2.97;;;7.80;99.90;;;;;;4116839;28;20200;-63
2022/12/26 07:19:49;;;;;;;5.37;3.23;;;7.80;99.90;;;;;;4115509;28;20215;-64
2022/12/26 07:21:49;;;;;;;5.60;3.60;;;7.80;99.90;;;;;;4115512;28;20191;-63
2022/12/26 07:23:51;;;;;;;7.50;4.17;;;7.70;99.90;;;;;;4097897;29;20215;-63
2022/12/26 07:25:52;;;;;;;6.83;4.20;;;7.50;99.90;;;;;;4097782;29;20291;-63
2022/12/26 07:27:53;;;;;;;5.30;3.57;;;7.60;99.90;;;;;;4114569;28;21015;-63
2022/12/26 07:29:53;;;;;;;6.63;4.20;;;7.60;99.90;;;;;;4115229;28;20206;-64
2022/12/26 07:31:56;;;;;;;8.73;4.90;;;7.60;99.90;;;;;;4115105;28;20665;-64
2022/12/26 07:33:57;;;;;;;7.67;5.03;;;7.70;99.90;;;;;;4115138;28;20566;-64
2022/12/26 07:36:04;;;;;;;6.53;4.47;;;7.70;99.90;;;;;;4114928;28;20183;-64
2022/12/26 07:38:05;;;;;;;6.30;4.23;;;7.70;99.90;;;;;;4097243;29;20215;-64
2022/12/26 07:40:07;;;;;;;6.83;4.87;;;7.60;99.90;;;;;;4115012;28;20269;-64
2022/12/26 07:42:07;;;;;;;6.37;3.93;;;7.60;99.90;;;;;;4114642;28;20222;-64
2022/12/26 07:44:09;;;;;;;6.30;4.63;;;7.70;99.90;;;;;;4115175;28;20654;-65
2022/12/26 07:46:10;;;;;;;6.67;5.23;;;7.60;99.90;;;;;;4114814;28;20670;-63
2022/12/26 07:48:11;;;;;;;9.57;4.80;;;7.50;99.90;;;;;;4114074;28;20238;-63
2022/12/26 07:50:11;;;;;;;4.93;3.57;;;7.50;99.90;;;;;;4114701;28;20215;-64
2022/12/26 07:52:12;;;;;;;9.93;4.57;;;7.50;99.90;;;;;;4081440;29;20199;-63
2022/12/26 07:54:13;;;;;;;7.27;4.47;;;7.50;99.90;;;;;;4114457;28;20186;-64
2022/12/26 07:56:15;;;;;;;8.63;5.00;;;7.60;99.90;;;;;;4114743;28;20266;-63
2022/12/26 07:58:15;;;;;;;6.30;3.50;;;7.70;99.90;;;;;;4113856;28;20261;-63
2022/12/26 08:00:18;;;;;;;5.00;3.10;;;8.00;99.90;;;;;;4114629;28;20187;-63
2022/12/26 08:02:18;;;;;;;5.37;2.97;;;8.20;99.90;;;;;;4114516;28;20873;-63
2022/12/26 08:04:19;;;;;;;5.07;3.03;;;8.40;99.90;;;;;;4096993;29;20198;-63
2022/12/26 08:06:20;;;;;;;3.87;2.70;;;8.40;99.90;;;;;;4114094;28;20719;-63
2022/12/26 08:08:21;;;;;;;4.67;3.00;;;8.60;99.90;;;;;;4097637;29;20621;-63
2022/12/26 08:10:22;;;;;;;4.07;2.60;;;8.60;99.90;;;;;;4096884;29;20239;-64
2022/12/26 08:12:23;;;;;;;3.77;2.60;;;8.70;99.90;;;;;;4112788;28;20179;-64
2022/12/26 08:14:24;;;;;;;4.63;2.80;;;8.80;99.90;;;;;;4114395;28;20228;-63
2022/12/26 08:16:24;;;;;;;2.70;1.97;;;8.90;99.90;;;;;;4113522;28;20190;-63
2022/12/26 08:18:25;;;;;;;4.63;2.90;;;9.10;99.90;;;;;;4114280;28;20215;-64
2022/12/26 08:20:26;;;;;;;4.23;2.13;;;9.00;99.90;;;;;;4114154;28;20622;-64
2022/12/26 08:22:27;;;;;;;3.53;2.70;;;9.10;99.90;;;;;;4114007;28;20191;-64
2022/12/26 08:24:27;;;;;;;3.87;2.80;;;9.20;99.90;;;;;;4096745;29;20194;-64
2022/12/26 08:26:28;;;;;;;3.40;2.63;;;9.30;99.90;;;;;;4113470;28;20202;-64
2022/12/26 08:28:29;;;;;;;3.70;2.20;;;9.20;99.90;;;;;;4113511;28;20203;-64
2022/12/26 08:30:29;;;;;;;3.17;2.57;;;9.10;99.90;;;;;;4114054;28;20230;-64
2022/12/26 08:32:30;;;;;;;6.70;3.20;;;9.10;99.90;;;;;;4114098;28;20214;-63
2022/12/26 08:34:33;;;;;;;4.60;2.50;;;9.20;99.90;;;;;;4114196;28;20274;-64
2022/12/26 08:36:33;;;;;;;6.17;2.43;;;9.20;99.90;;;;;;4117367;28;20185;-63
2022/12/26 08:38:35;;;;;;;4.73;2.80;;;9.10;99.90;;;;;;4129564;28;20225;-64
2022/12/26 08:40:36;;;;;;;7.53;6.83;;;9.20;99.90;;;;;;4129549;28;20202;-64
2022/12/26 08:42:36;;;;;;;5.07;2.43;;;9.10;99.90;;;;;;4111904;28;20990;-63
2022/12/26 08:44:37;;;;;;;7.43;3.80;;;9.10;99.90;;;;;;4130018;28;20557;-64
2022/12/26 08:46:38;;;;;;;5.30;3.07;;;9.00;99.90;;;;;;4129134;28;20733;-63
2022/12/26 08:48:39;;;;;;;7.77;3.67;;;9.00;99.90;;;;;;4129396;28;20594;-63
2022/12/26 08:50:41;;;;;;;3.87;2.63;;;9.00;99.90;;;;;;4111849;28;20199;-63
2022/12/26 08:52:42;;;;;;;7.73;2.83;;;9.00;99.90;;;;;;4129408;28;20190;-63
2022/12/26 08:54:43;;;;;;;2.97;2.30;;;8.90;99.90;;;;;;4129280;28;20584;-64
2022/12/26 08:56:44;;;;;;;2.70;2.20;;;8.80;99.90;;;;;;4128650;28;20292;-64
2022/12/26 08:58:45;;;;;;;3.87;2.80;;;8.90;99.90;;;;;;4127262;28;20210;-63
2022/12/26 09:00:46;;;;;;;4.47;2.60;;;8.90;99.90;;;;;;4128785;28;20236;-64
2022/12/26 09:02:47;;;;;;;5.93;2.67;;;8.80;99.90;;;;;;4111921;28;20269;-64
2022/12/26 09:04:48;;;;;;;4.83;3.30;;;8.90;99.90;;;;;;4111728;28;20191;-64
2022/12/26 09:06:48;;;;;;;2.97;2.60;;;8.90;99.90;;;;;;4128500;28;20190;-63
2022/12/26 09:08:49;;;;;;;4.60;2.93;;;8.80;99.90;;;;;;4129174;28;20214;-64
2022/12/26 09:10:50;;;;;;;5.13;4.63;;;8.80;99.90;;;;;;4129093;28;20183;-64
2022/12/26 09:12:51;;;;;;;3.60;2.83;;;8.90;99.90;;;;;;4135638;28;20186;-64
2022/12/26 09:14:52;;;;;;;3.23;2.80;;;8.90;99.90;;;;;;4138291;28;20178;-64
2022/12/26 09:16:53;;;;;;;3.10;2.27;;;8.80;99.90;;;;;;4129875;28;20235;-64
2022/12/26 09:18:58;;;;;;;3.63;2.57;;;8.80;99.90;;;;;;4130340;28;20252;-63
2022/12/26 09:21:00;;;;;;;5.40;4.63;;;8.80;99.90;;;;;;4130136;28;20182;-64
2022/12/26 09:23:01;;;;;;;2.93;2.73;;;8.70;99.90;;;;;;4112525;28;20273;-64
2022/12/26 09:25:02;;;;;;;1.97;1.53;;;8.70;99.90;;;;;;4130010;28;20210;-64
2022/12/26 09:27:02;;;;;;;8.30;7.70;;;8.70;99.90;;;;;;4129365;28;20212;-64
2022/12/26 09:29:03;;;;;;;2.47;2.27;;;8.70;99.90;;;;;;4129709;28;20214;-64
2022/12/26 09:31:12;;;;;;;1.60;1.50;;;8.60;99.90;;;;;;4112440;28;20658;-63
2022/12/26 09:33:13;;;;;;;2.50;2.30;;;8.70;99.90;;;;;;4129772;28;20814;-65
2022/12/26 09:35:13;;;;;;;1.97;1.87;;;8.70;99.90;;;;;;4129603;28;20182;-64
2022/12/26 09:37:14;;;;;;;1.67;1.57;;;8.80;99.90;;;;;;4129019;28;20193;-64
2022/12/26 09:39:15;;;;;;;1.23;1.13;;;8.70;99.90;;;;;;4131355;28;20734;-64
2022/12/26 09:41:30;;;;;;;2.10;2.00;;;8.70;99.90;;;;;;4099571;29;20649;-64
2022/12/26 09:44:04;;;;;;;3.53;1.27;;;8.60;99.90;;;;;;4132794;28;20221;-65
2022/12/26 09:46:40;;;;;;;1.83;1.73;;;8.60;99.90;;;;;;4132567;28;20196;-65
2022/12/26 09:49:00;;;;;;;3.97;3.53;;;8.70;99.90;;;;;;4075599;28;20232;-63
2022/12/26 09:51:02;;;;;;;1.33;0.83;;;8.70;99.90;;;;;;4112468;28;20629;-64
2022/12/26 09:53:21;;;;;;;6.67;6.27;;;8.60;99.90;;;;;;4132009;28;20554;-65
2022/12/26 09:55:41;;;;;;;3.47;1.23;;;8.60;99.90;;;;;;4129427;28;20860;-65
2022/12/26 09:57:48;;;;;;;8.77;8.37;;;8.60;99.90;;;;;;4115384;28;20232;-64
2022/12/26 09:59:56;;;;;;;3.20;1.10;;;8.40;99.90;;;;;;4130616;28;20604;-64
2022/12/26 10:01:57;;;;;;;1.50;1.40;;;8.40;99.90;;;;;;4130517;28;20181;-63
2022/12/26 10:03:59;;;;;;;0.77;0.77;;;8.40;99.90;;;;;;4130321;28;20202;-63
2022/12/26 10:06:35;;;;;;;1.43;1.23;;;8.40;99.90;;;;;;4135714;28;20197;-63
2022/12/26 10:08:53;;;;;;;0.80;0.80;;;8.40;99.90;;;;;;4139098;28;20867;-63
2022/12/26 10:11:05;;;;;;;1.53;1.43;;;8.50;99.90;;;;;;4130425;28;20204;-64
2022/12/26 10:13:25;;;;;;;2.30;2.20;;;8.60;99.90;;;;;;4130250;28;20197;-63
2022/12/26 10:15:42;;;;;;;1.40;1.30;;;8.60;99.90;;;;;;4146921;28;20189;-63
2022/12/26 10:18:04;;;;;;;1.20;1.10;;;8.60;99.90;;;;;;4100208;28;20172;-62
2022/12/26 10:20:39;;;;;;;1.27;0.90;;;8.50;99.90;;;;;;4143729;28;20182;-64
2022/12/26 10:23:01;;;;;;;1.33;1.27;;;8.50;99.90;;;;;;4130210;28;20178;-63
2022/12/26 10:25:14;;;;;;;2.23;1.63;;;8.50;99.90;;;;;;4135724;28;20217;-65
2022/12/26 10:27:17;;;;;;;2.27;2.17;;;8.50;99.90;;;;;;4129623;28;20181;-65
2022/12/26 10:29:24;;;;;;;2.80;2.70;;;8.50;99.90;;;;;;4133368;28;20297;-65
2022/12/26 10:31:41;;;;;;;2.93;2.83;;;8.40;99.90;;;;;;4130129;28;20177;-63
2022/12/26 10:34:11;;;;;;;4.17;3.97;;;8.20;99.90;;;;;;4117508;28;20176;-66
2022/12/26 10:36:26;;;;;;;1.63;1.20;;;8.00;99.90;;;;;;4130005;28;20240;-65
2022/12/26 10:38:41;;;;;;;1.23;1.07;;;7.80;99.90;;;;;;4130105;28;20217;-64
2022/12/26 10:40:45;;;;;;;0.57;0.57;;;7.70;99.90;;;;;;4130197;28;20209;-63
2022/12/26 10:42:54;;;;;;;0.60;0.60;;;7.70;99.90;;;;;;4129939;28;20197;-64
2022/12/26 10:44:56;;;;;;;0.70;0.70;;;7.60;99.90;;;;;;4136516;28;20192;-65
2022/12/26 10:47:17;;;;;;;0.57;0.57;;;7.60;99.90;;;;;;4130856;28;20200;-64
2022/12/26 10:49:23;;;;;;;1.10;0.70;;;7.60;99.90;;;;;;4130908;28;20222;-64
2022/12/26 10:51:25;;;;;;;0.60;0.60;;;7.70;99.90;;;;;;4145063;28;20646;-64
2022/12/26 10:53:26;;;;;;;0.87;0.87;;;7.70;99.90;;;;;;4131959;28;20229;-64
2022/12/26 10:55:33;;;;;;;1.40;0.70;;;7.70;99.90;;;;;;4146268;28;20663;-64
2022/12/26 10:57:35;;;;;;;3.80;0.97;;;7.60;99.90;;;;;;4114430;28;20244;-64
2022/12/26 10:59:49;;;;;;;3.93;3.73;;;7.70;99.90;;;;;;4140225;28;20220;-64
2022/12/26 11:01:50;;;;;;;0.60;0.60;;;7.60;99.90;;;;;;4129693;28;20193;-64
2022/12/26 11:04:00;;;;;;;0.70;0.70;;;7.70;99.90;;;;;;4133087;28;20201;-65
2022/12/26 11:06:05;;;;;;;1.10;0.90;;;7.80;99.90;;;;;;4129604;28;20655;-64
2022/12/26 11:08:24;;;;;;;2.07;0.70;;;7.80;99.90;;;;;;4134547;28;20203;-64
2022/12/26 11:10:28;;;;;;;0.60;0.60;;;7.80;99.90;;;;;;4139849;28;20257;-63
2022/12/26 11:12:50;;;;;;;3.20;1.80;;;7.90;99.90;;;;;;4131957;28;20228;-64
2022/12/26 11:14:59;;;;;;;1.67;1.00;;;8.00;99.90;;;;;;4136202;28;20263;-64
2022/12/26 11:17:12;;;;;;;1.93;1.13;;;8.00;99.90;;;;;;4142647;28;20219;-62
2022/12/26 11:19:43;;;;;;;1.17;1.17;;;8.00;99.90;;;;;;4100867;28;20306;-63
2022/12/26 11:21:43;;;;;;;0.63;0.63;;;7.90;99.90;;;;;;4117695;28;20198;-63
2022/12/26 11:23:54;;;;;;;0.50;0.50;;;7.90;99.90;;;;;;4145717;28;20193;-63
2022/12/26 11:25:58;;;;;;;2.47;0.90;;;7.90;99.90;;;;;;4129650;28;20248;-63
2022/12/26 11:28:26;;;;;;;0.77;0.60;;;7.90;99.90;;;;;;4142691;28;20190;-63
2022/12/26 11:30:36;;;;;;;0.63;0.60;;;7.90;99.90;;;;;;4138147;28;20239;-62
2022/12/26 11:32:36;;;;;;;4.37;1.80;;;7.80;99.90;;;;;;4128462;28;20655;-65
2022/12/26 11:34:45;;;;;;;0.80;0.70;;;7.80;99.90;;;;;;4131166;28;20220;-66
2022/12/26 11:36:50;;;;;;;0.80;0.80;;;7.80;99.90;;;;;;4129113;28;20552;-64
2022/12/26 11:39:04;;;;;;;0.73;0.73;;;7.80;99.90;;;;;;4131052;28;20232;-65
2022/12/26 11:41:32;;;;;;;1.07;1.07;;;7.70;99.90;;;;;;4130559;28;20166;-65
2022/12/26 11:43:33;;;;;;;0.53;0.53;;;7.70;99.90;;;;;;4128565;28;20209;-65
2022/12/26 11:45:42;;;;;;;1.00;1.00;;;7.60;99.90;;;;;;4129394;28;20193;-65
2022/12/26 11:47:44;;;;;;;4.47;0.80;;;7.60;99.90;;;;;;4128863;28;20217;-63
2022/12/26 11:50:05;;;;;;;0.70;0.67;;;7.60;99.90;;;;;;4129297;28;20206;-63
2022/12/26 11:52:51;;;;;;;1.20;0.60;;;7.60;99.90;;;;;;4129292;28;20184;-63
2022/12/26 11:54:52;;;;;;;0.77;0.60;;;7.60;99.90;;;;;;4124851;28;20231;-63
2022/12/26 11:57:02;;;;;;;0.80;0.50;;;7.60;99.90;;;;;;4130061;28;20216;-63
2022/12/26 11:59:19;;;;;;;1.07;0.60;;;7.60;99.90;;;;;;4129624;28;20576;-63
2022/12/26 12:01:19;;;;;;;0.67;0.60;;;7.70;99.90;;;;;;4130716;28;20385;-63
2022/12/26 12:03:45;;;;;;;0.90;0.70;;;7.70;99.90;;;;;;4130338;28;20197;-64
2022/12/26 12:06:02;;;;;;;0.57;0.50;;;7.60;99.90;;;;;;4129333;28;20201;-65
2022/12/26 12:08:35;;;;;;;2.43;0.57;;;7.50;99.90;;;;;;4128297;28;20308;-64
2022/12/26 12:11:03;;;;;;;0.57;0.50;;;7.50;99.90;;;;;;4129160;28;20275;-64
2022/12/26 12:13:41;;;;;;;5.60;0.77;;;7.40;99.90;;;;;;4129448;28;20179;-67
2022/12/26 12:16:20;;;;;;;0.80;0.80;;;7.40;99.90;;;;;;4129452;28;20184;-64
2022/12/26 12:18:36;;;;;;;1.93;1.00;;;7.40;99.90;;;;;;4128903;28;20215;-64
2022/12/26 12:21:23;;;;;;;1.30;1.20;;;7.40;99.90;;;;;;4130633;28;20180;-64
2022/12/26 12:23:39;;;;;;;1.17;0.50;;;7.40;99.90;;;;;;4106882;28;20523;-64
2022/12/26 12:26:24;;;;;;;0.70;0.70;;;7.30;99.90;;;;;;4130127;28;20208;-64
2022/12/26 12:28:30;;;;;;;64.17;1.90;;;7.30;99.90;;;;;;4129949;28;20307;-64
2022/12/26 12:30:47;;;;;;;2.13;0.87;;;7.40;99.90;;;;;;4129926;28;20465;-65
2022/12/26 12:33:18;;;;;;;1.53;0.80;;;7.40;99.90;;;;;;4129080;28;20794;-64
2022/12/26 12:35:38;;;;;;;0.70;0.70;;;7.40;99.90;;;;;;4128885;28;20711;-64
2022/12/26 12:38:19;;;;;;;0.80;0.80;;;7.50;99.90;;;;;;4116978;28;20185;-64
2022/12/26 12:40:40;;;;;;;1.10;0.77;;;7.50;99.90;;;;;;4112914;28;20183;-64
2022/12/26 12:42:49;;;;;;;1.40;0.73;;;7.40;99.90;;;;;;4112560;28;20182;-64
2022/12/26 12:45:25;;;;;;;0.87;0.77;;;7.40;99.90;;;;;;4130093;28;20185;-64
2022/12/26 12:47:56;;;;;;;0.80;0.60;;;7.40;99.90;;;;;;4129213;28;20186;-64
2022/12/26 12:50:22;;;;;;;1.60;1.10;;;7.40;99.90;;;;;;4130143;28;20825;-65
2022/12/26 12:52:53;;;;;;;1.00;0.90;;;7.30;99.90;;;;;;4129827;28;20197;-64
2022/12/26 12:55:05;;;;;;;0.67;0.60;;;7.40;99.90;;;;;;4080495;28;20195;-65
2022/12/26 12:57:36;;;;;;;2.17;1.30;;;7.50;99.90;;;;;;4111697;28;20182;-64
2022/12/26 13:00:17;;;;;;;5.77;2.20;;;7.60;99.90;;;;;;4129669;28;20213;-64
2022/12/26 13:02:52;;;;;;;2.27;1.60;;;7.70;99.90;;;;;;4096248;29;20204;-64
2022/12/26 13:05:05;;;;;;;1.20;0.70;;;7.70;99.90;;;;;;4104612;28;20654;-64
2022/12/26 13:07:15;;;;;;;1.93;1.10;;;7.60;99.90;;;;;;4113260;28;20248;-62
2022/12/26 13:09:24;;;;;;;1.80;1.30;;;7.40;99.90;;;;;;4113520;28;20276;-62
2022/12/26 13:11:46;;;;;;;2.17;1.70;;;7.40;99.90;;;;;;4080570;29;20218;-62
2022/12/26 13:14:00;;;;;;;1.30;1.20;;;7.30;99.90;;;;;;4113633;28;20216;-65
2022/12/26 13:16:10;;;;;;;0.93;0.70;;;7.20;99.90;;;;;;4105993;29;20175;-65